sensor_id;sensor_type;location;lat;lon;timestamp;temperature;humidity
14489;DHT22;7330;50.804;4.550;2022-12-18T00:02:11;-2.70;99.90
14489;DHT22;7330;50.804;4.550;2022-12-18T00:07:05;-2.80;99.90
14489;DHT22;7330;50.804;4.550;2022-12-18T00:09:32;-2.80;99.90
14489;DHT22;7330;50.804;4.550;2022-12-18T00:11:58;-2.80;99.90
14489;DHT22;7330;50.804;4.550;2022-12-18T00:14:25;-2.80;99.90
14489;DHT22;7330;50.804;4.550;2022-12-18T00:16:53;-2.80;99.90
14489;DHT22;7330;50.804;4.550;2022-12-18T00:19:20;-2.90;99.90
14489;DHT22;7330;50.804;4.550;2022-12-18T00:21:47;-2.80;99.90
14489;DHT22;7330;50.804;4.550;2022-12-18T00:24:14;-2.90;99.90
14489;DHT22;7330;50.804;4.550;2022-12-18T00:29:09;-2.90;99.90
14489;DHT22;7330;50.804;4.550;2022-12-18T00:31:36;-3.00;99.90
14489;DHT22;7330;50.804;4.550;2022-12-18T00:34:05;-3.00;99.90
14489;DHT22;7330;50.804;4.550;2022-12-18T00:38:59;-3.00;99.90
14489;DHT22;7330;50.804;4.550;2022-12-18T00:41:26;-3.10;99.90
14489;DHT22;7330;50.804;4.550;2022-12-18T00:44:11;-3.10;99.90
14489;DHT22;7330;50.804;4.550;2022-12-18T00:46:38;-3.10;99.90
14489;DHT22;7330;50.804;4.550;2022-12-18T00:49:07;-3.10;99.90
14489;DHT22;7330;50.804;4.550;2022-12-18T00:51:33;-3.20;99.90
14489;DHT22;7330;50.804;4.550;2022-12-18T00:54:00;-3.20;99.90
14489;DHT22;7330;50.804;4.550;2022-12-18T00:56:27;-3.20;99.90
14489;DHT22;7330;50.804;4.550;2022-12-18T00:58:54;-3.20;99.90
14489;DHT22;7330;50.804;4.550;2022-12-18T01:01:21;-3.20;99.90
14489;DHT22;7330;50.804;4.550;2022-12-18T01:03:47;-3.30;99.90
14489;DHT22;7330;50.804;4.550;2022-12-18T01:06:16;-3.30;99.90
14489;DHT22;7330;50.804;4.550;2022-12-18T01:08:43;-3.30;99.90
14489;DHT22;7330;50.804;4.550;2022-12-18T01:11:10;-3.30;99.90
14489;DHT22;7330;50.804;4.550;2022-12-18T01:13:37;-3.40;99.90
14489;DHT22;7330;50.804;4.550;2022-12-18T01:16:04;-3.40;99.90
14489;DHT22;7330;50.804;4.550;2022-12-18T01:18:31;-3.40;99.90
14489;DHT22;7330;50.804;4.550;2022-12-18T01:20:57;-3.40;99.90
14489;DHT22;7330;50.804;4.550;2022-12-18T01:25:55;-3.50;99.90
14489;DHT22;7330;50.804;4.550;2022-12-18T01:28:23;-3.50;99.90
14489;DHT22;7330;50.804;4.550;2022-12-18T01:30:50;-3.50;99.90
14489;DHT22;7330;50.804;4.550;2022-12-18T01:35:44;-3.50;99.90
14489;DHT22;7330;50.804;4.550;2022-12-18T01:43:08;-3.60;99.90
14489;DHT22;7330;50.804;4.550;2022-12-18T01:45:35;-3.50;99.90
14489;DHT22;7330;50.804;4.550;2022-12-18T01:48:02;-3.60;99.90
14489;DHT22;7330;50.804;4.550;2022-12-18T01:52:58;-3.60;99.90
14489;DHT22;7330;50.804;4.550;2022-12-18T01:55:26;-3.60;99.90
14489;DHT22;7330;50.804;4.550;2022-12-18T01:57:54;-3.60;99.90
14489;DHT22;7330;50.804;4.550;2022-12-18T02:02:50;-3.70;99.90
14489;DHT22;7330;50.804;4.550;2022-12-18T02:07:45;-3.60;99.90
14489;DHT22;7330;50.804;4.550;2022-12-18T02:10:15;-3.70;99.90
14489;DHT22;7330;50.804;4.550;2022-12-18T02:12:45;-3.60;99.90
14489;DHT22;7330;50.804;4.550;2022-12-18T02:17:43;-3.60;99.90
14489;DHT22;7330;50.804;4.550;2022-12-18T02:20:16;-3.70;99.90
14489;DHT22;7330;50.804;4.550;2022-12-18T02:25:17;-3.70;99.90
14489;DHT22;7330;50.804;4.550;2022-12-18T02:30:16;-3.70;99.90
14489;DHT22;7330;50.804;4.550;2022-12-18T02:40:05;-3.80;99.90
14489;DHT22;7330;50.804;4.550;2022-12-18T02:42:32;-3.80;99.90
14489;DHT22;7330;50.804;4.550;2022-12-18T02:44:59;-3.80;99.90
14489;DHT22;7330;50.804;4.550;2022-12-18T02:52:25;-3.90;99.90
14489;DHT22;7330;50.804;4.550;2022-12-18T02:54:57;-3.90;99.90
14489;DHT22;7330;50.804;4.550;2022-12-18T02:57:30;-3.90;99.90
14489;DHT22;7330;50.804;4.550;2022-12-18T03:02:27;-4.00;99.90
14489;DHT22;7330;50.804;4.550;2022-12-18T03:04:58;-4.00;99.90
14489;DHT22;7330;50.804;4.550;2022-12-18T03:07:33;-4.00;99.90
14489;DHT22;7330;50.804;4.550;2022-12-18T03:12:29;-4.00;99.90
14489;DHT22;7330;50.804;4.550;2022-12-18T03:14:58;-4.10;99.90
14489;DHT22;7330;50.804;4.550;2022-12-18T03:19:53;-4.10;99.90
14489;DHT22;7330;50.804;4.550;2022-12-18T03:22:22;-4.20;99.90
14489;DHT22;7330;50.804;4.550;2022-12-18T03:24:51;-4.20;99.90
14489;DHT22;7330;50.804;4.550;2022-12-18T03:27:19;-4.20;99.90
14489;DHT22;7330;50.804;4.550;2022-12-18T03:29:47;-4.20;99.90
14489;DHT22;7330;50.804;4.550;2022-12-18T03:32:19;-4.20;99.90
14489;DHT22;7330;50.804;4.550;2022-12-18T03:34:47;-4.10;99.90
14489;DHT22;7330;50.804;4.550;2022-12-18T03:37:16;-4.20;99.90
14489;DHT22;7330;50.804;4.550;2022-12-18T03:39:43;-4.10;99.90
14489;DHT22;7330;50.804;4.550;2022-12-18T03:42:13;-4.20;99.90
14489;DHT22;7330;50.804;4.550;2022-12-18T03:47:13;-4.20;99.90
14489;DHT22;7330;50.804;4.550;2022-12-18T03:49:43;-4.20;99.90
14489;DHT22;7330;50.804;4.550;2022-12-18T03:52:13;-4.10;99.90
14489;DHT22;7330;50.804;4.550;2022-12-18T03:54:41;-4.20;99.90
14489;DHT22;7330;50.804;4.550;2022-12-18T03:57:09;-4.10;99.90
14489;DHT22;7330;50.804;4.550;2022-12-18T03:59:39;-4.20;99.90
14489;DHT22;7330;50.804;4.550;2022-12-18T04:02:06;-4.10;99.90
14489;DHT22;7330;50.804;4.550;2022-12-18T04:04:34;-4.10;99.90
14489;DHT22;7330;50.804;4.550;2022-12-18T04:09:28;-4.20;99.90
14489;DHT22;7330;50.804;4.550;2022-12-18T04:11:56;-4.20;99.90
14489;DHT22;7330;50.804;4.550;2022-12-18T04:16:51;-4.20;99.90
14489;DHT22;7330;50.804;4.550;2022-12-18T04:19:18;-4.20;99.90
14489;DHT22;7330;50.804;4.550;2022-12-18T04:21:44;-4.20;99.90
14489;DHT22;7330;50.804;4.550;2022-12-18T04:24:11;-4.20;99.90
14489;DHT22;7330;50.804;4.550;2022-12-18T04:26:38;-4.20;99.90
14489;DHT22;7330;50.804;4.550;2022-12-18T04:31:32;-4.10;99.90
14489;DHT22;7330;50.804;4.550;2022-12-18T04:34:01;-4.20;99.90
14489;DHT22;7330;50.804;4.550;2022-12-18T04:36:27;-4.10;99.90
14489;DHT22;7330;50.804;4.550;2022-12-18T04:38:54;-4.20;99.90
14489;DHT22;7330;50.804;4.550;2022-12-18T04:41:21;-4.10;99.90
14489;DHT22;7330;50.804;4.550;2022-12-18T04:43:48;-4.20;99.90
14489;DHT22;7330;50.804;4.550;2022-12-18T04:46:14;-4.10;99.90
14489;DHT22;7330;50.804;4.550;2022-12-18T04:48:41;-4.20;99.90
14489;DHT22;7330;50.804;4.550;2022-12-18T04:51:09;-4.20;99.90
14489;DHT22;7330;50.804;4.550;2022-12-18T04:53:36;-4.20;99.90
14489;DHT22;7330;50.804;4.550;2022-12-18T04:56:04;-4.20;99.90
14489;DHT22;7330;50.804;4.550;2022-12-18T04:58:31;-4.30;99.90
14489;DHT22;7330;50.804;4.550;2022-12-18T05:00:58;-4.30;99.90
14489;DHT22;7330;50.804;4.550;2022-12-18T05:03:24;-4.30;99.90
14489;DHT22;7330;50.804;4.550;2022-12-18T05:05:51;-4.40;99.90
14489;DHT22;7330;50.804;4.550;2022-12-18T05:08:19;-4.40;99.90
14489;DHT22;7330;50.804;4.550;2022-12-18T05:10:46;-4.40;99.90
14489;DHT22;7330;50.804;4.550;2022-12-18T05:13:13;-4.40;99.90
14489;DHT22;7330;50.804;4.550;2022-12-18T05:15:40;-4.40;99.90
14489;DHT22;7330;50.804;4.550;2022-12-18T05:18:07;-4.50;99.90
14489;DHT22;7330;50.804;4.550;2022-12-18T05:20:34;-4.50;99.90
14489;DHT22;7330;50.804;4.550;2022-12-18T05:25:29;-4.50;99.90
14489;DHT22;7330;50.804;4.550;2022-12-18T05:27:56;-4.50;99.90
14489;DHT22;7330;50.804;4.550;2022-12-18T05:30:23;-4.50;99.90
14489;DHT22;7330;50.804;4.550;2022-12-18T05:32:50;-4.50;99.90
14489;DHT22;7330;50.804;4.550;2022-12-18T05:35:16;-4.50;99.90
14489;DHT22;7330;50.804;4.550;2022-12-18T05:37:43;-4.50;99.90
14489;DHT22;7330;50.804;4.550;2022-12-18T05:42:38;-4.50;99.90
14489;DHT22;7330;50.804;4.550;2022-12-18T05:45:05;-4.50;99.90
14489;DHT22;7330;50.804;4.550;2022-12-18T05:47:32;-4.50;99.90
14489;DHT22;7330;50.804;4.550;2022-12-18T05:49:59;-4.50;99.90
14489;DHT22;7330;50.804;4.550;2022-12-18T05:52:26;-4.50;99.90
14489;DHT22;7330;50.804;4.550;2022-12-18T05:54:53;-4.50;99.90
14489;DHT22;7330;50.804;4.550;2022-12-18T05:57:20;-4.40;99.90
14489;DHT22;7330;50.804;4.550;2022-12-18T05:59:48;-4.40;99.90
14489;DHT22;7330;50.804;4.550;2022-12-18T06:04:42;-4.40;99.90
14489;DHT22;7330;50.804;4.550;2022-12-18T06:07:08;-4.40;99.90
14489;DHT22;7330;50.804;4.550;2022-12-18T06:09:35;-4.30;99.90
14489;DHT22;7330;50.804;4.550;2022-12-18T06:12:02;-4.40;99.90
14489;DHT22;7330;50.804;4.550;2022-12-18T06:14:29;-4.30;99.90
14489;DHT22;7330;50.804;4.550;2022-12-18T06:16:57;-4.30;99.90
14489;DHT22;7330;50.804;4.550;2022-12-18T06:19:24;-4.30;99.90
14489;DHT22;7330;50.804;4.550;2022-12-18T06:21:50;-4.30;99.90
14489;DHT22;7330;50.804;4.550;2022-12-18T06:26:44;-4.30;99.90
14489;DHT22;7330;50.804;4.550;2022-12-18T06:29:11;-4.30;99.90
14489;DHT22;7330;50.804;4.550;2022-12-18T06:31:38;-4.30;99.90
14489;DHT22;7330;50.804;4.550;2022-12-18T06:34:06;-4.30;99.90
14489;DHT22;7330;50.804;4.550;2022-12-18T06:39:00;-4.40;99.90
14489;DHT22;7330;50.804;4.550;2022-12-18T06:41:27;-4.30;99.90
14489;DHT22;7330;50.804;4.550;2022-12-18T06:43:53;-4.30;99.90
14489;DHT22;7330;50.804;4.550;2022-12-18T06:48:48;-4.30;99.90
14489;DHT22;7330;50.804;4.550;2022-12-18T06:53:43;-4.30;99.90
14489;DHT22;7330;50.804;4.550;2022-12-18T06:58:37;-4.30;99.90
14489;DHT22;7330;50.804;4.550;2022-12-18T07:01:05;-4.30;99.90
14489;DHT22;7330;50.804;4.550;2022-12-18T07:05:59;-4.30;99.90
14489;DHT22;7330;50.804;4.550;2022-12-18T07:15:48;-4.30;99.90
14489;DHT22;7330;50.804;4.550;2022-12-18T07:18:15;-4.30;99.90
14489;DHT22;7330;50.804;4.550;2022-12-18T07:23:09;-4.30;99.90
14489;DHT22;7330;50.804;4.550;2022-12-18T07:25:36;-4.30;99.90
14489;DHT22;7330;50.804;4.550;2022-12-18T07:28:03;-4.30;99.90
14489;DHT22;7330;50.804;4.550;2022-12-18T07:32:59;-4.30;99.90
14489;DHT22;7330;50.804;4.550;2022-12-18T07:35:25;-4.30;99.90
14489;DHT22;7330;50.804;4.550;2022-12-18T07:37:52;-4.30;99.90
14489;DHT22;7330;50.804;4.550;2022-12-18T07:42:46;-4.30;99.90
14489;DHT22;7330;50.804;4.550;2022-12-18T07:45:12;-4.30;99.90
14489;DHT22;7330;50.804;4.550;2022-12-18T07:50:09;-4.30;99.90
14489;DHT22;7330;50.804;4.550;2022-12-18T07:55:03;-4.30;99.90
14489;DHT22;7330;50.804;4.550;2022-12-18T07:59:57;-4.30;99.90
14489;DHT22;7330;50.804;4.550;2022-12-18T08:02:24;-4.30;99.90
14489;DHT22;7330;50.804;4.550;2022-12-18T08:04:50;-4.30;99.90
14489;DHT22;7330;50.804;4.550;2022-12-18T08:07:18;-4.30;99.90
14489;DHT22;7330;50.804;4.550;2022-12-18T08:12:12;-4.30;99.90
14489;DHT22;7330;50.804;4.550;2022-12-18T08:17:06;-4.20;99.90
14489;DHT22;7330;50.804;4.550;2022-12-18T08:19:33;-4.30;99.90
14489;DHT22;7330;50.804;4.550;2022-12-18T08:21:59;-4.20;99.90
14489;DHT22;7330;50.804;4.550;2022-12-18T08:24:28;-4.20;99.90
14489;DHT22;7330;50.804;4.550;2022-12-18T08:26:54;-4.10;99.90
14489;DHT22;7330;50.804;4.550;2022-12-18T08:29:22;-4.00;99.90
14489;DHT22;7330;50.804;4.550;2022-12-18T08:31:49;-4.00;99.90
14489;DHT22;7330;50.804;4.550;2022-12-18T08:39:09;-3.90;99.90
14489;DHT22;7330;50.804;4.550;2022-12-18T08:41:37;-3.80;99.90
14489;DHT22;7330;50.804;4.550;2022-12-18T08:44:04;-3.70;99.90
14489;DHT22;7330;50.804;4.550;2022-12-18T08:46:49;-3.70;99.90
14489;DHT22;7330;50.804;4.550;2022-12-18T08:49:15;-3.60;99.90
14489;DHT22;7330;50.804;4.550;2022-12-18T08:51:42;-3.60;99.90
14489;DHT22;7330;50.804;4.550;2022-12-18T08:54:09;-3.50;99.90
14489;DHT22;7330;50.804;4.550;2022-12-18T08:56:38;-3.40;99.90
14489;DHT22;7330;50.804;4.550;2022-12-18T08:59:05;-3.40;99.90
14489;DHT22;7330;50.804;4.550;2022-12-18T09:06:26;-3.20;99.90
14489;DHT22;7330;50.804;4.550;2022-12-18T09:08:53;-3.20;99.90
14489;DHT22;7330;50.804;4.550;2022-12-18T09:11:21;-3.10;99.90
14489;DHT22;7330;50.804;4.550;2022-12-18T09:13:49;-3.00;99.90
14489;DHT22;7330;50.804;4.550;2022-12-18T09:16:16;-2.90;99.90
14489;DHT22;7330;50.804;4.550;2022-12-18T09:18:43;-2.80;99.90
14489;DHT22;7330;50.804;4.550;2022-12-18T09:21:11;-2.70;99.90
14489;DHT22;7330;50.804;4.550;2022-12-18T09:23:38;-2.70;99.90
14489;DHT22;7330;50.804;4.550;2022-12-18T09:28:31;-2.50;99.90
14489;DHT22;7330;50.804;4.550;2022-12-18T09:31:02;-2.50;99.90
14489;DHT22;7330;50.804;4.550;2022-12-18T09:33:30;-2.40;99.90
14489;DHT22;7330;50.804;4.550;2022-12-18T09:35:57;-2.30;99.90
14489;DHT22;7330;50.804;4.550;2022-12-18T09:43:19;-2.00;99.90
14489;DHT22;7330;50.804;4.550;2022-12-18T09:45:47;-2.00;99.90
14489;DHT22;7330;50.804;4.550;2022-12-18T09:48:18;-2.00;99.90
14489;DHT22;7330;50.804;4.550;2022-12-18T09:50:46;-2.00;99.90
14489;DHT22;7330;50.804;4.550;2022-12-18T09:53:15;-1.90;99.90
14489;DHT22;7330;50.804;4.550;2022-12-18T10:00:36;-1.70;99.90
14489;DHT22;7330;50.804;4.550;2022-12-18T10:05:33;-1.60;99.90
14489;DHT22;7330;50.804;4.550;2022-12-18T10:08:04;-1.50;99.90
14489;DHT22;7330;50.804;4.550;2022-12-18T10:10:35;-1.50;99.90
14489;DHT22;7330;50.804;4.550;2022-12-18T10:13:13;-1.50;99.90
14489;DHT22;7330;50.804;4.550;2022-12-18T10:18:14;-1.30;99.90
14489;DHT22;7330;50.804;4.550;2022-12-18T10:20:47;-1.20;99.90
14489;DHT22;7330;50.804;4.550;2022-12-18T10:23:17;-1.20;99.90
14489;DHT22;7330;50.804;4.550;2022-12-18T10:25:47;-1.20;99.90
14489;DHT22;7330;50.804;4.550;2022-12-18T10:30:42;-1.10;99.90
14489;DHT22;7330;50.804;4.550;2022-12-18T10:33:10;-0.90;99.90
14489;DHT22;7330;50.804;4.550;2022-12-18T10:35:41;-0.90;99.90
14489;DHT22;7330;50.804;4.550;2022-12-18T10:38:21;-0.90;99.90
14489;DHT22;7330;50.804;4.550;2022-12-18T10:40:50;-0.70;99.90
14489;DHT22;7330;50.804;4.550;2022-12-18T10:53:05;-0.40;99.90
14489;DHT22;7330;50.804;4.550;2022-12-18T11:00:41;-0.30;99.90
14489;DHT22;7330;50.804;4.550;2022-12-18T11:03:14;-0.20;99.90
14489;DHT22;7330;50.804;4.550;2022-12-18T11:13:16;0.00;99.90
14489;DHT22;7330;50.804;4.550;2022-12-18T11:15:45;0.10;99.90
14489;DHT22;7330;50.804;4.550;2022-12-18T11:18:19;0.10;99.90
14489;DHT22;7330;50.804;4.550;2022-12-18T11:23:13;0.20;99.90
14489;DHT22;7330;50.804;4.550;2022-12-18T11:25:40;0.20;99.90
14489;DHT22;7330;50.804;4.550;2022-12-18T11:28:25;0.20;99.90
14489;DHT22;7330;50.804;4.550;2022-12-18T11:31:08;0.20;99.90
14489;DHT22;7330;50.804;4.550;2022-12-18T11:33:36;0.40;99.90
14489;DHT22;7330;50.804;4.550;2022-12-18T11:36:03;0.40;99.90
14489;DHT22;7330;50.804;4.550;2022-12-18T11:38:31;0.40;99.90
14489;DHT22;7330;50.804;4.550;2022-12-18T11:40:59;0.40;99.90
14489;DHT22;7330;50.804;4.550;2022-12-18T11:45:56;0.60;99.90
14489;DHT22;7330;50.804;4.550;2022-12-18T11:48:27;0.60;99.90
14489;DHT22;7330;50.804;4.550;2022-12-18T11:50:55;0.70;99.90
14489;DHT22;7330;50.804;4.550;2022-12-18T11:53:23;0.70;99.90
14489;DHT22;7330;50.804;4.550;2022-12-18T11:58:20;0.80;99.90
14489;DHT22;7330;50.804;4.550;2022-12-18T12:00:51;0.80;99.90
14489;DHT22;7330;50.804;4.550;2022-12-18T12:03:34;0.80;99.90
14489;DHT22;7330;50.804;4.550;2022-12-18T12:06:08;0.90;99.90
14489;DHT22;7330;50.804;4.550;2022-12-18T12:08:44;0.90;99.90
14489;DHT22;7330;50.804;4.550;2022-12-18T12:13:43;1.00;99.90
14489;DHT22;7330;50.804;4.550;2022-12-18T12:16:15;1.00;99.90
14489;DHT22;7330;50.804;4.550;2022-12-18T12:18:49;1.10;99.90
14489;DHT22;7330;50.804;4.550;2022-12-18T12:21:20;1.10;99.90
14489;DHT22;7330;50.804;4.550;2022-12-18T12:23:51;1.20;99.90
14489;DHT22;7330;50.804;4.550;2022-12-18T12:26:22;1.20;99.90
14489;DHT22;7330;50.804;4.550;2022-12-18T12:31:19;1.30;99.90
14489;DHT22;7330;50.804;4.550;2022-12-18T12:33:50;1.30;99.90
14489;DHT22;7330;50.804;4.550;2022-12-18T12:36:20;1.30;99.90
14489;DHT22;7330;50.804;4.550;2022-12-18T12:38:51;1.40;99.90
14489;DHT22;7330;50.804;4.550;2022-12-18T12:41:21;1.40;99.90
14489;DHT22;7330;50.804;4.550;2022-12-18T12:46:34;1.50;99.90
14489;DHT22;7330;50.804;4.550;2022-12-18T12:51:32;1.60;99.90
14489;DHT22;7330;50.804;4.550;2022-12-18T12:53:59;1.50;99.90
14489;DHT22;7330;50.804;4.550;2022-12-18T12:56:27;1.60;99.90
14489;DHT22;7330;50.804;4.550;2022-12-18T12:58:57;1.60;99.90
14489;DHT22;7330;50.804;4.550;2022-12-18T13:01:28;1.60;99.90
14489;DHT22;7330;50.804;4.550;2022-12-18T13:03:58;1.60;99.90
14489;DHT22;7330;50.804;4.550;2022-12-18T13:06:33;1.70;99.90
14489;DHT22;7330;50.804;4.550;2022-12-18T13:14:22;1.70;99.90
14489;DHT22;7330;50.804;4.550;2022-12-18T13:16:50;1.70;99.90
14489;DHT22;7330;50.804;4.550;2022-12-18T13:21:45;1.70;99.90
14489;DHT22;7330;50.804;4.550;2022-12-18T13:24:22;1.80;99.90
14489;DHT22;7330;50.804;4.550;2022-12-18T13:26:49;1.80;99.90
14489;DHT22;7330;50.804;4.550;2022-12-18T13:39:48;1.80;99.90
14489;DHT22;7330;50.804;4.550;2022-12-18T13:48:19;1.80;99.90
14489;DHT22;7330;50.804;4.550;2022-12-18T13:50:52;1.90;99.90
14489;DHT22;7330;50.804;4.550;2022-12-18T13:53:20;1.80;99.90
14489;DHT22;7330;50.804;4.550;2022-12-18T13:58:16;1.90;99.90
14489;DHT22;7330;50.804;4.550;2022-12-18T14:00:43;2.00;99.90
14489;DHT22;7330;50.804;4.550;2022-12-18T14:08:04;2.00;99.90
14489;DHT22;7330;50.804;4.550;2022-12-18T14:10:32;2.10;99.90
14489;DHT22;7330;50.804;4.550;2022-12-18T14:13:02;2.10;99.90
14489;DHT22;7330;50.804;4.550;2022-12-18T14:17:59;2.00;99.90
14489;DHT22;7330;50.804;4.550;2022-12-18T14:20:26;2.00;99.90
14489;DHT22;7330;50.804;4.550;2022-12-18T14:27:50;2.00;99.90
14489;DHT22;7330;50.804;4.550;2022-12-18T14:30:24;2.00;99.90
14489;DHT22;7330;50.804;4.550;2022-12-18T14:35:20;2.00;99.90
14489;DHT22;7330;50.804;4.550;2022-12-18T14:37:46;2.00;99.90
14489;DHT22;7330;50.804;4.550;2022-12-18T14:40:13;2.00;99.90
14489;DHT22;7330;50.804;4.550;2022-12-18T14:42:40;2.00;99.90
14489;DHT22;7330;50.804;4.550;2022-12-18T14:47:34;2.00;99.90
14489;DHT22;7330;50.804;4.550;2022-12-18T14:50:01;2.00;99.90
14489;DHT22;7330;50.804;4.550;2022-12-18T14:52:29;2.00;99.90
14489;DHT22;7330;50.804;4.550;2022-12-18T14:57:25;2.10;99.90
14489;DHT22;7330;50.804;4.550;2022-12-18T14:59:55;2.00;99.90
14489;DHT22;7330;50.804;4.550;2022-12-18T15:02:34;2.10;99.90
14489;DHT22;7330;50.804;4.550;2022-12-18T15:07:38;2.10;99.90
14489;DHT22;7330;50.804;4.550;2022-12-18T15:10:10;2.10;99.90
14489;DHT22;7330;50.804;4.550;2022-12-18T15:15:04;2.20;99.90
14489;DHT22;7330;50.804;4.550;2022-12-18T15:22:26;2.10;99.90
14489;DHT22;7330;50.804;4.550;2022-12-18T15:24:55;2.10;99.90
14489;DHT22;7330;50.804;4.550;2022-12-18T15:27:26;2.10;99.90
14489;DHT22;7330;50.804;4.550;2022-12-18T15:30:11;2.10;99.90
14489;DHT22;7330;50.804;4.550;2022-12-18T15:32:42;2.10;99.90
14489;DHT22;7330;50.804;4.550;2022-12-18T15:35:12;2.10;99.90
14489;DHT22;7330;50.804;4.550;2022-12-18T15:37:39;2.10;99.90
14489;DHT22;7330;50.804;4.550;2022-12-18T15:42:35;2.10;99.90
14489;DHT22;7330;50.804;4.550;2022-12-18T15:48:01;2.10;99.90
14489;DHT22;7330;50.804;4.550;2022-12-18T15:50:28;2.10;99.90
14489;DHT22;7330;50.804;4.550;2022-12-18T15:52:54;2.10;99.90
14489;DHT22;7330;50.804;4.550;2022-12-18T15:55:22;2.10;99.90
14489;DHT22;7330;50.804;4.550;2022-12-18T15:58:08;2.10;99.90
14489;DHT22;7330;50.804;4.550;2022-12-18T16:00:36;2.10;99.90
14489;DHT22;7330;50.804;4.550;2022-12-18T16:03:04;2.10;99.90
14489;DHT22;7330;50.804;4.550;2022-12-18T16:05:31;2.10;99.90
14489;DHT22;7330;50.804;4.550;2022-12-18T16:07:58;2.10;99.90
14489;DHT22;7330;50.804;4.550;2022-12-18T16:10:25;2.00;99.90
14489;DHT22;7330;50.804;4.550;2022-12-18T16:12:52;2.00;99.90
14489;DHT22;7330;50.804;4.550;2022-12-18T16:15:20;2.10;99.90
14489;DHT22;7330;50.804;4.550;2022-12-18T16:17:47;2.00;99.90
14489;DHT22;7330;50.804;4.550;2022-12-18T16:20:14;2.10;99.90
14489;DHT22;7330;50.804;4.550;2022-12-18T16:22:42;2.00;99.90
14489;DHT22;7330;50.804;4.550;2022-12-18T16:25:10;2.10;99.90
14489;DHT22;7330;50.804;4.550;2022-12-18T16:27:41;2.10;99.90
14489;DHT22;7330;50.804;4.550;2022-12-18T16:30:11;2.10;99.90
14489;DHT22;7330;50.804;4.550;2022-12-18T16:32:40;2.10;99.90
14489;DHT22;7330;50.804;4.550;2022-12-18T16:47:22;2.20;99.90
14489;DHT22;7330;50.804;4.550;2022-12-18T16:49:50;2.20;99.90
14489;DHT22;7330;50.804;4.550;2022-12-18T16:52:17;2.20;99.90
14489;DHT22;7330;50.804;4.550;2022-12-18T16:54:44;2.20;99.90
14489;DHT22;7330;50.804;4.550;2022-12-18T16:59:38;2.20;99.90
14489;DHT22;7330;50.804;4.550;2022-12-18T17:02:05;2.10;99.90
14489;DHT22;7330;50.804;4.550;2022-12-18T17:07:00;2.10;99.80
14489;DHT22;7330;50.804;4.550;2022-12-18T17:09:29;2.20;99.80
14489;DHT22;7330;50.804;4.550;2022-12-18T17:11:55;2.20;99.70
14489;DHT22;7330;50.804;4.550;2022-12-18T17:21:43;2.20;99.80
14489;DHT22;7330;50.804;4.550;2022-12-18T17:24:11;2.30;99.90
14489;DHT22;7330;50.804;4.550;2022-12-18T17:29:05;2.30;99.90
14489;DHT22;7330;50.804;4.550;2022-12-18T17:31:33;2.40;99.90
14489;DHT22;7330;50.804;4.550;2022-12-18T17:36:26;2.40;99.90
14489;DHT22;7330;50.804;4.550;2022-12-18T17:43:51;2.40;99.90
14489;DHT22;7330;50.804;4.550;2022-12-18T17:48:45;2.50;99.90
14489;DHT22;7330;50.804;4.550;2022-12-18T17:51:11;2.40;99.90
14489;DHT22;7330;50.804;4.550;2022-12-18T17:53:38;2.50;99.90
14489;DHT22;7330;50.804;4.550;2022-12-18T17:58:33;2.50;99.90
14489;DHT22;7330;50.804;4.550;2022-12-18T18:05:58;2.50;99.90
14489;DHT22;7330;50.804;4.550;2022-12-18T18:08:25;2.50;99.90
14489;DHT22;7330;50.804;4.550;2022-12-18T18:10:52;2.50;99.90
14489;DHT22;7330;50.804;4.550;2022-12-18T18:13:20;2.50;99.90
14489;DHT22;7330;50.804;4.550;2022-12-18T18:16:05;2.50;99.90
14489;DHT22;7330;50.804;4.550;2022-12-18T18:18:32;2.40;99.90
14489;DHT22;7330;50.804;4.550;2022-12-18T18:23:27;2.50;99.90
14489;DHT22;7330;50.804;4.550;2022-12-18T18:25:55;2.50;99.90
14489;DHT22;7330;50.804;4.550;2022-12-18T18:28:27;2.50;99.90
14489;DHT22;7330;50.804;4.550;2022-12-18T18:35:48;2.60;99.90
14489;DHT22;7330;50.804;4.550;2022-12-18T18:38:15;2.60;99.90
14489;DHT22;7330;50.804;4.550;2022-12-18T18:40:43;2.60;99.90
14489;DHT22;7330;50.804;4.550;2022-12-18T18:43:10;2.70;99.90
14489;DHT22;7330;50.804;4.550;2022-12-18T18:55:25;2.70;99.90
14489;DHT22;7330;50.804;4.550;2022-12-18T19:00:21;2.80;99.90
14489;DHT22;7330;50.804;4.550;2022-12-18T19:02:47;2.70;99.90
14489;DHT22;7330;50.804;4.550;2022-12-18T19:05:14;2.70;99.90
14489;DHT22;7330;50.804;4.550;2022-12-18T19:15:21;2.80;99.90
14489;DHT22;7330;50.804;4.550;2022-12-18T19:22:42;2.80;99.90
14489;DHT22;7330;50.804;4.550;2022-12-18T19:30:04;2.80;99.90
14489;DHT22;7330;50.804;4.550;2022-12-18T19:32:33;2.90;99.90
14489;DHT22;7330;50.804;4.550;2022-12-18T19:35:00;2.90;99.90
14489;DHT22;7330;50.804;4.550;2022-12-18T19:37:27;2.90;99.90
14489;DHT22;7330;50.804;4.550;2022-12-18T19:39:54;2.90;99.90
14489;DHT22;7330;50.804;4.550;2022-12-18T19:44:48;3.00;99.90
14489;DHT22;7330;50.804;4.550;2022-12-18T19:47:14;2.90;99.90
14489;DHT22;7330;50.804;4.550;2022-12-18T19:52:10;2.90;99.90
14489;DHT22;7330;50.804;4.550;2022-12-18T19:54:37;3.00;99.90
14489;DHT22;7330;50.804;4.550;2022-12-18T19:59:32;3.00;99.90
14489;DHT22;7330;50.804;4.550;2022-12-18T20:02:00;2.90;99.90
14489;DHT22;7330;50.804;4.550;2022-12-18T20:06:55;3.00;99.90
14489;DHT22;7330;50.804;4.550;2022-12-18T20:16:49;3.00;99.90
14489;DHT22;7330;50.804;4.550;2022-12-18T20:19:16;3.10;99.90
14489;DHT22;7330;50.804;4.550;2022-12-18T20:24:10;3.10;99.90
14489;DHT22;7330;50.804;4.550;2022-12-18T20:26:37;3.20;99.90
14489;DHT22;7330;50.804;4.550;2022-12-18T20:31:32;3.20;99.90
14489;DHT22;7330;50.804;4.550;2022-12-18T20:38:54;3.30;99.90
14489;DHT22;7330;50.804;4.550;2022-12-18T20:41:22;3.30;99.90
14489;DHT22;7330;50.804;4.550;2022-12-18T20:43:48;3.30;99.90
14489;DHT22;7330;50.804;4.550;2022-12-18T20:46:15;3.30;99.90
14489;DHT22;7330;50.804;4.550;2022-12-18T20:53:37;3.40;99.90
14489;DHT22;7330;50.804;4.550;2022-12-18T21:01:03;3.40;99.90
14489;DHT22;7330;50.804;4.550;2022-12-18T21:03:31;3.40;99.90
14489;DHT22;7330;50.804;4.550;2022-12-18T21:05:58;3.40;99.90
14489;DHT22;7330;50.804;4.550;2022-12-18T21:08:25;3.30;99.90
14489;DHT22;7330;50.804;4.550;2022-12-18T21:10:51;3.30;99.90
14489;DHT22;7330;50.804;4.550;2022-12-18T21:13:18;3.30;99.90
14489;DHT22;7330;50.804;4.550;2022-12-18T21:20:41;3.30;99.90
14489;DHT22;7330;50.804;4.550;2022-12-18T21:23:09;3.30;99.90
14489;DHT22;7330;50.804;4.550;2022-12-18T21:28:03;3.30;99.90
14489;DHT22;7330;50.804;4.550;2022-12-18T21:32:57;3.30;99.90
14489;DHT22;7330;50.804;4.550;2022-12-18T21:35:24;3.30;99.90
14489;DHT22;7330;50.804;4.550;2022-12-18T21:40:21;3.30;99.90
14489;DHT22;7330;50.804;4.550;2022-12-18T21:42:48;3.30;99.90
14489;DHT22;7330;50.804;4.550;2022-12-18T21:45:32;3.40;99.90
14489;DHT22;7330;50.804;4.550;2022-12-18T21:47:59;3.40;99.90
14489;DHT22;7330;50.804;4.550;2022-12-18T21:52:53;3.40;99.90
14489;DHT22;7330;50.804;4.550;2022-12-18T21:55:21;3.50;99.90
14489;DHT22;7330;50.804;4.550;2022-12-18T21:57:48;3.40;99.90
14489;DHT22;7330;50.804;4.550;2022-12-18T22:00:15;3.50;99.90
14489;DHT22;7330;50.804;4.550;2022-12-18T22:02:42;3.40;99.90
14489;DHT22;7330;50.804;4.550;2022-12-18T22:05:09;3.40;99.90
14489;DHT22;7330;50.804;4.550;2022-12-18T22:07:36;3.50;99.90
14489;DHT22;7330;50.804;4.550;2022-12-18T22:10:03;3.50;99.90
14489;DHT22;7330;50.804;4.550;2022-12-18T22:12:32;3.50;99.90
14489;DHT22;7330;50.804;4.550;2022-12-18T22:22:23;3.60;99.90